Time;durP1;ratioP1;P1;durP2;ratioP2;P2;SDS_P1;SDS_P2;PMS_P1;PMS_P2;Temp;Humidity;BMP_temperature;BMP_pressure;BME280_temperature;BME280_humidity;BME280_pressure;Samples;Min_cycle;Max_cycle;Signal;HPM_P1;HPM_P2
2023/10/01 00:00:22;;;;;;;9.67;7.80;;;11.70;99.90;;;;;;5120706;28;20908;-59
2023/10/01 00:02:51;;;;;;;11.20;7.40;;;11.70;99.90;;;;;;5121456;28;20490;-59
2023/10/01 00:05:21;;;;;;;10.30;8.60;;;11.80;99.90;;;;;;5120981;28;20487;-59
2023/10/01 00:07:51;;;;;;;15.47;8.67;;;11.70;99.90;;;;;;5120341;28;20469;-59
2023/10/01 00:10:19;;;;;;;11.33;7.77;;;11.80;99.90;;;;;;5120528;28;20459;-59
2023/10/01 00:12:49;;;;;;;9.63;7.57;;;11.80;99.90;;;;;;5121570;28;20923;-59
2023/10/01 00:15:18;;;;;;;10.07;7.93;;;11.70;99.90;;;;;;5119821;28;20569;-58
2023/10/01 00:17:48;;;;;;;9.87;7.50;;;11.70;99.90;;;;;;5120212;28;20461;-59
2023/10/01 00:20:22;;;;;;;11.40;7.80;;;11.70;99.90;;;;;;5120076;28;20465;-59
2023/10/01 00:22:51;;;;;;;16.97;8.10;;;11.60;99.90;;;;;;5119350;28;20485;-59
2023/10/01 00:25:19;;;;;;;8.70;7.67;;;11.40;99.90;;;;;;5120334;28;20585;-58
2023/10/01 00:27:48;;;;;;;13.30;8.20;;;11.40;99.90;;;;;;5120634;28;20750;-59
2023/10/01 00:30:16;;;;;;;10.53;8.73;;;11.40;99.90;;;;;;5119955;28;20459;-58
2023/10/01 00:32:44;;;;;;;9.57;8.30;;;11.40;99.90;;;;;;5120784;28;20542;-59
2023/10/01 00:35:12;;;;;;;16.03;8.27;;;11.30;99.90;;;;;;5121357;28;20491;-59
2023/10/01 00:37:39;;;;;;;11.73;8.67;;;11.30;99.90;;;;;;5120414;28;20466;-59
2023/10/01 00:40:10;;;;;;;14.93;8.77;;;11.30;99.90;;;;;;5120511;28;20769;-59
2023/10/01 00:42:39;;;;;;;10.20;8.13;;;11.30;99.90;;;;;;5119892;28;20469;-59
2023/10/01 00:45:11;;;;;;;9.97;8.50;;;11.20;99.90;;;;;;5120605;28;20483;-59
2023/10/01 00:47:40;;;;;;;11.63;7.90;;;11.30;99.90;;;;;;5120272;28;20547;-59
2023/10/01 00:50:11;;;;;;;11.63;8.10;;;11.20;99.90;;;;;;5120287;28;20805;-59
2023/10/01 00:52:38;;;;;;;10.90;8.13;;;11.30;99.90;;;;;;5120912;28;20951;-59
2023/10/01 00:55:08;;;;;;;11.10;8.20;;;11.30;99.90;;;;;;5120652;28;20458;-59
2023/10/01 00:57:37;;;;;;;8.90;7.97;;;11.30;99.90;;;;;;5120783;28;20460;-59
2023/10/01 01:00:13;;;;;;;9.20;8.27;;;11.40;99.90;;;;;;5119697;28;20887;-59
2023/10/01 01:02:46;;;;;;;9.73;8.00;;;11.30;99.90;;;;;;5120258;28;20494;-58
2023/10/01 01:05:23;;;;;;;10.53;8.40;;;11.30;99.90;;;;;;5120389;28;20497;-58
2023/10/01 01:07:51;;;;;;;10.77;9.30;;;11.20;99.90;;;;;;5120012;27;20935;-59
2023/10/01 01:10:20;;;;;;;9.37;7.97;;;11.20;99.90;;;;;;5119628;28;20885;-58
2023/10/01 01:12:53;;;;;;;7.70;6.90;;;11.10;99.90;;;;;;5119522;28;20482;-59
2023/10/01 01:15:22;;;;;;;11.03;8.00;;;11.20;99.90;;;;;;5120326;28;20456;-59
2023/10/01 01:17:50;;;;;;;11.23;8.13;;;11.10;99.90;;;;;;5120136;28;20749;-59
2023/10/01 01:20:19;;;;;;;13.10;9.70;;;11.20;99.90;;;;;;5120095;28;20512;-59
2023/10/01 01:22:52;;;;;;;12.00;8.40;;;11.20;99.90;;;;;;5120019;28;20463;-59
2023/10/01 01:25:21;;;;;;;11.80;8.50;;;11.20;99.90;;;;;;5120171;28;20487;-59
2023/10/01 01:27:50;;;;;;;9.80;8.70;;;11.20;99.90;;;;;;5120198;28;20904;-59
2023/10/01 01:30:19;;;;;;;11.73;9.50;;;11.30;99.90;;;;;;5119708;28;20460;-59
2023/10/01 01:32:53;;;;;;;10.90;9.20;;;11.30;99.90;;;;;;5119379;28;20589;-59
2023/10/01 01:35:27;;;;;;;11.40;8.20;;;11.40;99.90;;;;;;5119986;28;20454;-59
2023/10/01 01:37:58;;;;;;;10.50;9.00;;;11.30;99.90;;;;;;5119719;28;20490;-59
2023/10/01 01:40:31;;;;;;;11.90;8.30;;;11.30;99.90;;;;;;5119483;28;20891;-59
2023/10/01 01:43:04;;;;;;;10.67;9.30;;;11.30;99.90;;;;;;5119788;28;20493;-59
2023/10/01 01:45:38;;;;;;;11.53;8.23;;;11.20;99.90;;;;;;5120094;28;20495;-59
2023/10/01 01:48:21;;;;;;;11.50;8.23;;;11.20;99.90;;;;;;5121510;27;20470;-59
2023/10/01 01:50:49;;;;;;;10.60;9.03;;;11.20;99.90;;;;;;5115760;27;20474;-59
2023/10/01 01:53:18;;;;;;;16.43;9.00;;;11.10;99.90;;;;;;5118210;28;20810;-60
2023/10/01 01:55:45;;;;;;;11.70;8.80;;;11.10;99.90;;;;;;5118167;28;20714;-59
2023/10/01 01:58:15;;;;;;;11.17;9.37;;;11.10;99.90;;;;;;5119298;28;20851;-59
2023/10/01 02:01:01;;;;;;;9.90;8.30;;;11.10;99.90;;;;;;5119146;28;20464;-59
2023/10/01 02:03:32;;;;;;;10.10;7.90;;;11.20;99.90;;;;;;5118809;28;20483;-59
2023/10/01 02:06:00;;;;;;;9.80;7.57;;;11.20;99.90;;;;;;5119615;28;20466;-59
2023/10/01 02:08:44;;;;;;;10.50;8.03;;;11.20;99.90;;;;;;5118617;28;20499;-58
2023/10/01 02:11:13;;;;;;;10.50;8.00;;;11.10;99.90;;;;;;5118962;28;20508;-59
2023/10/01 02:13:41;;;;;;;11.10;8.20;;;11.10;99.90;;;;;;5119172;28;20463;-57
2023/10/01 02:16:34;;;;;;;10.40;8.67;;;11.00;99.90;;;;;;5118487;28;20455;-59
2023/10/01 02:19:14;;;;;;;10.43;8.40;;;11.20;99.90;;;;;;5119063;28;20546;-59
2023/10/01 02:21:43;;;;;;;11.93;9.10;;;11.20;99.90;;;;;;5118678;28;20462;-59
2023/10/01 02:24:13;;;;;;;12.20;9.33;;;11.30;99.90;;;;;;5118844;28;20781;-60
2023/10/01 02:26:41;;;;;;;13.77;8.90;;;11.30;99.90;;;;;;5118844;28;20949;-59
2023/10/01 02:29:12;;;;;;;10.80;8.87;;;11.20;99.90;;;;;;5119101;28;20452;-59
2023/10/01 02:31:46;;;;;;;13.30;8.80;;;11.20;99.90;;;;;;5118032;28;20465;-59
2023/10/01 02:34:14;;;;;;;9.80;8.33;;;11.20;99.90;;;;;;5118548;28;20465;-59
2023/10/01 02:36:42;;;;;;;12.63;8.50;;;11.20;99.90;;;;;;5118967;28;20456;-59
2023/10/01 02:39:20;;;;;;;13.37;7.87;;;11.20;99.90;;;;;;5118844;28;20456;-59
2023/10/01 02:42:09;;;;;;;9.00;7.90;;;11.30;99.90;;;;;;5118344;28;20463;-59
2023/10/01 02:44:38;;;;;;;10.83;8.40;;;11.20;99.90;;;;;;5117977;28;20478;-59
2023/10/01 02:47:16;;;;;;;11.57;8.03;;;11.30;99.90;;;;;;5116748;27;20495;-59
2023/10/01 02:49:48;;;;;;;9.10;8.17;;;11.40;99.90;;;;;;5118338;28;20517;-59
2023/10/01 02:52:15;;;;;;;11.50;8.90;;;11.50;99.90;;;;;;5117595;28;20904;-59
2023/10/01 02:54:47;;;;;;;9.73;8.33;;;11.40;99.90;;;;;;5118275;28;20491;-59
2023/10/01 02:57:20;;;;;;;9.90;8.10;;;11.40;99.90;;;;;;5118097;28;20538;-57
2023/10/01 03:02:32;;;;;;;11.60;9.10;;;11.30;99.90;;;;;;5117321;28;20493;-59
2023/10/01 03:05:03;;;;;;;9.03;7.70;;;11.30;99.90;;;;;;5118452;28;20508;-59
2023/10/01 03:07:38;;;;;;;7.87;7.07;;;11.30;99.90;;;;;;5118462;28;20493;-59
2023/10/01 03:10:14;;;;;;;11.57;7.70;;;11.30;99.90;;;;;;5118071;28;20463;-59
2023/10/01 03:12:42;;;;;;;9.43;7.40;;;11.30;99.90;;;;;;5118310;28;20459;-59
2023/10/01 03:15:25;;;;;;;13.10;7.90;;;11.30;99.90;;;;;;5118037;28;20518;-60
2023/10/01 03:18:05;;;;;;;11.70;8.63;;;11.30;99.90;;;;;;5118415;28;20466;-59
2023/10/01 03:23:26;;;;;;;12.00;7.83;;;11.20;99.90;;;;;;5117065;28;20518;-59
2023/10/01 03:25:58;;;;;;;9.47;6.93;;;11.20;99.90;;;;;;5117334;28;20606;-59
2023/10/01 03:28:28;;;;;;;10.00;8.03;;;11.30;99.90;;;;;;5118174;28;20933;-59
2023/10/01 03:31:06;;;;;;;13.93;8.20;;;11.30;99.90;;;;;;5117536;28;20463;-59
2023/10/01 03:33:37;;;;;;;12.00;8.20;;;11.30;99.90;;;;;;5120093;28;20896;-59
2023/10/01 03:36:09;;;;;;;8.30;6.93;;;11.30;99.90;;;;;;5119605;28;20497;-59
2023/10/01 03:38:37;;;;;;;10.03;7.50;;;11.20;99.90;;;;;;5117027;28;20451;-59
2023/10/01 03:41:08;;;;;;;9.67;7.50;;;11.20;99.90;;;;;;5115518;28;20455;-59
2023/10/01 03:43:36;;;;;;;9.53;7.70;;;11.20;99.90;;;;;;5120350;28;20516;-59
2023/10/01 03:46:13;;;;;;;9.13;6.97;;;11.20;99.90;;;;;;5099412;28;20799;-59
2023/10/01 03:49:00;;;;;;;9.20;7.97;;;11.10;99.90;;;;;;5096969;28;20459;-59
2023/10/01 03:54:14;;;;;;;10.03;7.60;;;11.20;99.90;;;;;;5127738;28;20466;-60
2023/10/01 03:56:47;;;;;;;10.87;7.57;;;11.20;99.90;;;;;;5134497;28;20533;-59
2023/10/01 03:59:16;;;;;;;10.77;8.10;;;11.10;99.90;;;;;;5136301;28;20468;-59
2023/10/01 04:04:56;;;;;;;9.07;7.60;;;11.20;99.90;;;;;;5143985;27;20604;-60
2023/10/01 04:07:26;;;;;;;9.20;7.40;;;11.20;99.90;;;;;;5114672;27;20566;-60
2023/10/01 04:09:54;;;;;;;10.00;7.40;;;11.30;99.90;;;;;;5114139;28;20467;-60
2023/10/01 04:12:28;;;;;;;12.17;7.20;;;11.30;99.90;;;;;;5129338;27;20539;-60
2023/10/01 04:15:01;;;;;;;10.07;7.60;;;11.40;99.90;;;;;;5137079;27;20459;-60
2023/10/01 04:17:29;;;;;;;12.00;8.33;;;11.50;99.90;;;;;;5136678;27;20540;-60
2023/10/01 04:20:00;;;;;;;7.53;6.53;;;11.40;99.90;;;;;;5135105;27;20511;-60
2023/10/01 04:22:29;;;;;;;10.53;7.73;;;11.50;99.90;;;;;;5135918;27;20463;-60
2023/10/01 04:25:09;;;;;;;9.30;7.37;;;11.40;99.90;;;;;;5134603;28;20495;-60
2023/10/01 04:27:38;;;;;;;9.07;6.80;;;11.40;99.90;;;;;;5123631;27;20573;-60
2023/10/01 04:30:08;;;;;;;10.47;7.90;;;11.30;99.90;;;;;;5127218;27;20824;-60
2023/10/01 04:32:36;;;;;;;10.90;7.77;;;11.30;99.90;;;;;;5128849;27;20472;-60
2023/10/01 04:35:14;;;;;;;10.77;7.60;;;11.30;99.90;;;;;;5113959;27;20529;-59
2023/10/01 04:37:42;;;;;;;8.40;7.47;;;11.30;99.90;;;;;;5113745;28;20722;-60
2023/10/01 04:42:51;;;;;;;9.67;6.97;;;11.40;99.90;;;;;;5122519;27;20541;-59
2023/10/01 04:45:23;;;;;;;8.37;6.80;;;11.40;99.90;;;;;;5115741;27;20530;-60
2023/10/01 04:47:55;;;;;;;11.40;7.63;;;11.40;99.90;;;;;;5130584;27;20903;-59
2023/10/01 04:50:27;;;;;;;10.60;7.30;;;11.50;99.90;;;;;;5134263;27;20471;-60
2023/10/01 04:52:59;;;;;;;13.40;7.50;;;11.50;99.90;;;;;;5135244;27;20834;-60
2023/10/01 04:55:28;;;;;;;9.10;7.10;;;11.50;99.90;;;;;;5135179;27;20455;-59
2023/10/01 04:57:56;;;;;;;8.03;6.83;;;11.60;99.90;;;;;;5123810;27;20468;-60
2023/10/01 05:00:24;;;;;;;11.67;6.60;;;11.60;99.90;;;;;;5122848;27;20458;-60
2023/10/01 05:02:52;;;;;;;13.23;7.80;;;11.60;99.90;;;;;;5134607;27;20804;-60
2023/10/01 05:05:25;;;;;;;10.33;8.40;;;11.60;99.90;;;;;;5134230;27;20459;-60
2023/10/01 05:07:59;;;;;;;8.80;7.50;;;11.60;99.90;;;;;;5136408;27;20477;-60
2023/10/01 05:10:27;;;;;;;8.37;7.00;;;11.60;99.90;;;;;;5133739;28;20465;-60
2023/10/01 05:12:58;;;;;;;10.20;7.10;;;11.60;99.90;;;;;;5137033;27;20474;-60
2023/10/01 05:15:35;;;;;;;8.50;7.60;;;11.60;99.90;;;;;;5123141;27;20873;-60
2023/10/01 05:18:02;;;;;;;9.77;7.30;;;11.60;99.90;;;;;;5120402;28;20482;-60
2023/10/01 05:20:29;;;;;;;9.63;7.50;;;11.60;99.90;;;;;;5123196;27;20479;-60
2023/10/01 05:22:59;;;;;;;10.60;7.83;;;11.50;99.90;;;;;;5120495;28;20487;-60
2023/10/01 05:25:27;;;;;;;9.57;6.70;;;11.50;99.90;;;;;;5120737;28;20463;-60
2023/10/01 05:27:55;;;;;;;8.53;7.00;;;11.50;99.90;;;;;;5121261;27;20482;-60
2023/10/01 05:30:42;;;;;;;8.73;7.83;;;11.40;99.90;;;;;;5120068;27;20512;-60
2023/10/01 05:33:12;;;;;;;10.13;7.63;;;11.40;99.90;;;;;;5120599;28;20824;-60
2023/10/01 05:35:43;;;;;;;7.90;6.60;;;11.30;99.90;;;;;;5120059;28;20512;-60
2023/10/01 05:38:14;;;;;;;9.50;7.00;;;11.30;99.90;;;;;;5122249;27;20493;-60
2023/10/01 05:40:44;;;;;;;10.37;7.90;;;11.30;99.90;;;;;;5119823;27;20463;-59
2023/10/01 05:43:14;;;;;;;8.67;6.87;;;11.30;99.90;;;;;;5122789;27;20491;-60
2023/10/01 05:45:44;;;;;;;11.43;7.53;;;11.30;99.90;;;;;;5120098;28;20460;-60
2023/10/01 05:48:18;;;;;;;9.50;7.80;;;11.30;99.90;;;;;;5118953;27;20464;-60
2023/10/01 05:50:46;;;;;;;10.67;7.70;;;11.30;99.90;;;;;;5118334;28;20459;-60
2023/10/01 05:53:14;;;;;;;8.80;7.30;;;11.20;99.90;;;;;;5120367;28;20488;-60
2023/10/01 05:55:44;;;;;;;9.37;7.77;;;11.20;99.90;;;;;;5119788;28;20462;-60
2023/10/01 05:58:16;;;;;;;9.40;7.23;;;11.20;99.90;;;;;;5119678;28;20455;-60
2023/10/01 06:00:46;;;;;;;10.77;7.93;;;11.20;99.90;;;;;;5119265;27;20570;-60
2023/10/01 06:03:18;;;;;;;7.70;6.33;;;11.20;99.90;;;;;;5118979;28;20834;-60
2023/10/01 06:05:50;;;;;;;9.80;7.70;;;11.20;99.90;;;;;;5119498;28;20460;-60
2023/10/01 06:08:24;;;;;;;10.47;7.90;;;11.30;99.90;;;;;;5119806;28;20564;-60
2023/10/01 06:11:04;;;;;;;16.23;7.27;;;11.30;99.90;;;;;;5122426;27;20788;-59
2023/10/01 06:13:33;;;;;;;10.50;7.50;;;11.30;99.90;;;;;;5109282;27;20784;-60
2023/10/01 06:16:11;;;;;;;10.80;7.43;;;11.30;99.90;;;;;;5109737;27;20902;-59
2023/10/01 06:18:42;;;;;;;8.50;6.50;;;11.30;99.90;;;;;;5110351;27;20470;-60
2023/10/01 06:21:11;;;;;;;9.53;7.33;;;11.40;99.90;;;;;;5103853;27;20477;-60
2023/10/01 06:23:49;;;;;;;9.60;7.53;;;11.40;99.90;;;;;;5119712;27;20497;-60
2023/10/01 06:26:33;;;;;;;9.33;7.07;;;11.50;99.90;;;;;;5123657;27;20468;-60
2023/10/01 06:29:02;;;;;;;10.50;7.70;;;11.50;99.90;;;;;;5119040;27;20478;-60
2023/10/01 06:31:29;;;;;;;8.73;6.63;;;11.60;99.90;;;;;;5123384;27;20468;-60
2023/10/01 06:33:57;;;;;;;10.87;7.23;;;11.70;99.90;;;;;;5115599;28;20503;-60
2023/10/01 06:36:25;;;;;;;13.77;7.43;;;11.70;99.90;;;;;;5119028;28;20466;-60
2023/10/01 06:38:54;;;;;;;12.40;8.13;;;11.80;99.90;;;;;;5118653;28;20459;-59
2023/10/01 06:41:28;;;;;;;10.87;7.73;;;12.00;99.90;;;;;;5120239;27;20470;-60
2023/10/01 06:43:56;;;;;;;9.17;7.23;;;12.10;99.90;;;;;;5118626;28;20531;-60
2023/10/01 06:46:29;;;;;;;10.20;7.70;;;12.20;99.90;;;;;;5124108;27;20525;-60
2023/10/01 06:48:58;;;;;;;10.60;7.97;;;12.40;99.90;;;;;;5114089;28;20764;-60
2023/10/01 06:51:26;;;;;;;9.80;6.70;;;12.50;99.90;;;;;;5118850;28;20467;-60
2023/10/01 06:53:58;;;;;;;8.57;6.53;;;12.70;99.90;;;;;;5118763;28;20500;-60
2023/10/01 06:56:29;;;;;;;8.50;6.97;;;12.80;99.90;;;;;;5118478;28;20467;-60
2023/10/01 06:59:17;;;;;;;10.07;8.07;;;13.00;99.90;;;;;;5118791;28;20507;-60
2023/10/01 07:01:49;;;;;;;8.90;6.97;;;13.20;99.90;;;;;;5119327;27;20476;-60
2023/10/01 07:04:18;;;;;;;11.10;7.90;;;13.50;99.90;;;;;;5116661;27;20484;-61
2023/10/01 07:06:48;;;;;;;9.80;7.50;;;13.60;99.90;;;;;;5105268;28;20880;-61
2023/10/01 07:09:34;;;;;;;10.53;6.30;;;13.80;99.90;;;;;;5096584;28;20486;-61
2023/10/01 07:12:06;;;;;;;11.37;6.80;;;14.10;99.90;;;;;;5108656;27;20467;-61
2023/10/01 07:14:43;;;;;;;10.33;7.13;;;14.30;99.90;;;;;;5119203;27;20900;-60
2023/10/01 07:17:14;;;;;;;12.13;7.70;;;14.40;99.90;;;;;;5119921;27;20467;-61
2023/10/01 07:19:41;;;;;;;10.07;7.27;;;14.60;99.90;;;;;;5115862;27;20526;-61
2023/10/01 07:22:09;;;;;;;12.93;8.00;;;14.70;99.90;;;;;;5118417;27;20749;-60
2023/10/01 07:24:40;;;;;;;11.00;6.93;;;15.00;99.90;;;;;;5119745;27;20540;-60
2023/10/01 07:27:11;;;;;;;10.50;6.97;;;15.20;99.90;;;;;;5113723;27;20571;-60
2023/10/01 07:29:42;;;;;;;9.30;6.47;;;15.30;99.90;;;;;;5131194;27;20546;-60
2023/10/01 07:32:12;;;;;;;10.10;6.60;;;15.50;99.90;;;;;;5116869;27;20467;-58
2023/10/01 07:34:40;;;;;;;10.80;7.63;;;15.60;99.90;;;;;;5110366;27;20491;-60
2023/10/01 07:37:08;;;;;;;10.17;7.20;;;15.70;99.90;;;;;;5130080;27;20473;-60
2023/10/01 07:39:37;;;;;;;12.33;7.70;;;15.90;99.90;;;;;;5133946;27;20488;-60
2023/10/01 07:42:06;;;;;;;9.90;7.23;;;16.10;99.90;;;;;;5123640;27;20469;-60
2023/10/01 07:44:36;;;;;;;11.83;7.33;;;16.20;99.90;;;;;;5112975;27;20488;-60
2023/10/01 07:47:04;;;;;;;13.20;8.63;;;16.30;99.90;;;;;;5110078;27;20864;-60
2023/10/01 07:49:47;;;;;;;10.70;7.20;;;16.50;99.90;;;;;;5116029;27;20475;-60
2023/10/01 07:52:17;;;;;;;10.77;7.80;;;16.70;99.90;;;;;;5114876;28;20470;-60
2023/10/01 07:54:47;;;;;;;10.00;6.97;;;16.90;99.90;;;;;;5116364;28;20457;-61
2023/10/01 07:57:16;;;;;;;12.93;7.83;;;17.10;99.90;;;;;;5117285;28;20463;-60
2023/10/01 07:59:46;;;;;;;12.03;8.07;;;17.20;99.90;;;;;;5117774;28;20747;-60
2023/10/01 08:05:01;;;;;;;12.40;8.50;;;17.60;99.90;;;;;;5101282;28;20468;-60
2023/10/01 08:07:39;;;;;;;13.60;8.40;;;17.90;99.90;;;;;;5117596;28;20908;-60
2023/10/01 08:10:16;;;;;;;12.33;7.20;;;18.00;99.90;;;;;;5097773;28;20825;-60
2023/10/01 08:15:38;;;;;;;11.40;7.50;;;18.30;99.90;;;;;;5132662;27;20457;-60
2023/10/01 08:18:34;;;;;;;13.20;7.60;;;18.60;99.90;;;;;;5111971;28;20491;-60
2023/10/01 08:21:02;;;;;;;13.37;8.90;;;18.90;99.90;;;;;;5133030;28;20451;-60
2023/10/01 08:23:31;;;;;;;13.30;8.87;;;19.20;99.90;;;;;;5114522;28;20460;-60
2023/10/01 08:26:41;;;;;;;12.60;7.97;;;19.40;99.90;;;;;;5097307;28;20479;-60
2023/10/01 08:28:57;;;;;;;12.20;8.37;;;19.50;99.90;;;;;;5110852;28;20490;-61
2023/10/01 08:34:27;;;;;;;12.20;8.30;;;19.80;99.90;;;;;;5121395;28;20449;-60
2023/10/01 08:36:55;;;;;;;13.23;9.07;;;19.80;99.90;;;;;;5100327;27;20442;-60
2023/10/01 08:39:33;;;;;;;12.93;8.70;;;20.10;99.90;;;;;;5125042;27;20459;-60
2023/10/01 08:42:08;;;;;;;14.03;8.40;;;20.20;99.90;;;;;;5117223;28;20463;-60
2023/10/01 08:44:45;;;;;;;13.97;8.93;;;20.50;99.90;;;;;;5116796;28;20494;-60
2023/10/01 08:47:27;;;;;;;10.70;8.23;;;20.70;99.90;;;;;;5112390;28;20466;-60
2023/10/01 08:49:57;;;;;;;11.67;8.30;;;20.70;99.90;;;;;;5124442;27;20471;-60
2023/10/01 08:52:30;;;;;;;12.97;9.10;;;21.00;99.90;;;;;;5121254;27;20471;-61
2023/10/01 08:54:58;;;;;;;12.63;8.70;;;21.10;99.90;;;;;;5134618;27;20813;-60
2023/10/01 08:57:38;;;;;;;13.83;8.70;;;21.10;99.90;;;;;;5120842;27;20508;-60
2023/10/01 09:00:17;;;;;;;13.10;8.47;;;21.30;99.90;;;;;;5133820;27;20470;-60
2023/10/01 09:02:53;;;;;;;12.90;8.73;;;21.40;99.90;;;;;;5129669;27;20494;-60
2023/10/01 09:05:25;;;;;;;12.90;8.63;;;21.40;99.90;;;;;;5138842;27;20882;-61
2023/10/01 09:08:15;;;;;;;17.00;9.13;;;21.60;99.90;;;;;;5127646;27;20956;-61
2023/10/01 09:10:53;;;;;;;12.57;8.40;;;21.70;99.90;;;;;;5112961;27;20475;-60
2023/10/01 09:13:26;;;;;;;14.57;9.20;;;21.90;99.90;;;;;;5106839;27;20463;-59
2023/10/01 09:15:55;;;;;;;12.57;8.33;;;22.00;99.90;;;;;;5123799;27;20458;-61
2023/10/01 09:18:28;;;;;;;11.87;8.33;;;22.20;99.90;;;;;;5111866;27;20485;-60
2023/10/01 09:21:06;;;;;;;13.20;8.90;;;22.30;99.90;;;;;;5120664;27;20772;-59
2023/10/01 09:23:56;;;;;;;15.37;9.30;;;22.50;99.90;;;;;;5112567;28;20490;-61
2023/10/01 09:26:42;;;;;;;11.40;8.60;;;22.50;99.90;;;;;;5116548;27;20830;-61
2023/10/01 09:29:22;;;;;;;12.40;8.13;;;22.60;99.90;;;;;;5115303;27;20521;-61
2023/10/01 09:31:54;;;;;;;14.03;8.50;;;22.40;99.90;;;;;;5117885;27;20835;-61
2023/10/01 09:34:33;;;;;;;13.67;9.20;;;22.70;99.90;;;;;;5097190;28;20460;-60
2023/10/01 09:37:06;;;;;;;11.20;8.33;;;23.00;99.90;;;;;;5097041;28;20500;-59
2023/10/01 09:39:41;;;;;;;11.97;8.73;;;23.20;99.90;;;;;;5100656;28;20510;-61
2023/10/01 09:42:25;;;;;;;12.27;9.10;;;23.30;99.90;;;;;;5119507;28;20458;-61
2023/10/01 09:44:54;;;;;;;11.50;7.97;;;23.40;99.90;;;;;;5119233;28;20497;-61
2023/10/01 09:47:25;;;;;;;11.27;7.53;;;23.50;99.90;;;;;;5117150;27;20513;-61
2023/10/01 09:49:55;;;;;;;13.27;9.13;;;23.50;99.90;;;;;;5118329;27;21118;-59
2023/10/01 09:52:31;;;;;;;9.37;7.83;;;23.60;99.90;;;;;;5115359;27;20841;-61
2023/10/01 09:55:10;;;;;;;11.77;9.07;;;23.70;99.90;;;;;;5124714;27;20763;-60
2023/10/01 09:57:39;;;;;;;13.03;9.50;;;24.00;99.90;;;;;;5106534;27;20475;-61
2023/10/01 10:00:18;;;;;;;13.57;9.47;;;23.50;99.90;;;;;;5113904;27;20525;-61
2023/10/01 10:02:53;;;;;;;12.03;8.30;;;23.40;99.90;;;;;;5114891;28;20502;-61
2023/10/01 10:05:27;;;;;;;13.30;9.50;;;23.80;99.90;;;;;;5117695;28;20491;-61
2023/10/01 10:07:55;;;;;;;12.67;9.57;;;23.70;99.90;;;;;;5133346;27;20527;-61
2023/10/01 10:10:26;;;;;;;12.63;8.37;;;24.10;99.90;;;;;;5098879;27;20515;-61
2023/10/01 10:12:59;;;;;;;13.23;9.03;;;24.50;99.90;;;;;;5113241;27;20471;-61
2023/10/01 10:16:00;;;;;;;10.50;8.10;;;24.60;99.90;;;;;;5133428;27;20466;-61
2023/10/01 10:18:32;;;;;;;11.37;8.40;;;24.60;99.90;;;;;;5080161;28;20464;-61
2023/10/01 10:21:05;;;;;;;9.60;7.40;;;24.10;99.90;;;;;;5091986;28;20948;-59
2023/10/01 10:23:54;;;;;;;11.33;7.87;;;24.40;99.90;;;;;;5087418;28;20558;-61
2023/10/01 10:26:56;;;;;;;12.93;9.10;;;24.50;99.90;;;;;;5128247;27;20511;-60
2023/10/01 10:29:24;;;;;;;16.47;9.30;;;24.60;99.90;;;;;;5118514;27;20552;-59
2023/10/01 10:32:09;;;;;;;12.17;8.80;;;24.90;99.90;;;;;;5128658;27;20792;-60
2023/10/01 10:34:47;;;;;;;12.43;9.70;;;24.90;99.90;;;;;;5120521;27;20466;-60
2023/10/01 10:37:53;;;;;;;16.03;9.17;;;24.90;99.90;;;;;;5125888;27;20911;-60
2023/10/01 10:40:23;;;;;;;13.07;9.47;;;24.80;99.90;;;;;;5097800;28;20492;-60
2023/10/01 10:43:18;;;;;;;10.13;8.53;;;24.90;99.90;;;;;;5126039;27;20458;-58
2023/10/01 10:46:01;;;;;;;12.13;8.33;;;24.80;99.90;;;;;;5115462;27;20501;-60
2023/10/01 10:48:59;;;;;;;10.60;8.17;;;24.50;99.90;;;;;;5108143;28;20460;-60
2023/10/01 10:51:49;;;;;;;13.40;9.27;;;24.10;99.90;;;;;;5114988;27;20474;-60
2023/10/01 10:54:33;;;;;;;11.73;8.20;;;24.00;99.90;;;;;;5113273;28;20486;-60
2023/10/01 10:57:04;;;;;;;12.30;9.27;;;23.80;99.90;;;;;;5096108;28;20468;-60
2023/10/01 10:59:32;;;;;;;13.03;8.60;;;23.90;99.90;;;;;;5096138;27;20473;-59
2023/10/01 11:02:02;;;;;;;13.67;8.87;;;23.90;99.90;;;;;;5098463;27;20525;-60
2023/10/01 11:04:33;;;;;;;14.70;10.40;;;24.30;99.90;;;;;;5126959;27;20486;-61
2023/10/01 11:07:04;;;;;;;13.20;8.97;;;24.80;99.90;;;;;;5124648;27;20463;-59
2023/10/01 11:09:34;;;;;;;14.00;9.73;;;24.80;99.90;;;;;;5136726;27;20451;-59
2023/10/01 11:12:07;;;;;;;12.57;8.83;;;24.90;99.90;;;;;;5112711;27;20478;-59
2023/10/01 11:14:36;;;;;;;14.00;9.13;;;24.90;99.90;;;;;;5115845;27;20460;-58
2023/10/01 11:17:06;;;;;;;13.03;9.27;;;25.00;99.90;;;;;;5124535;27;20477;-60
2023/10/01 11:19:36;;;;;;;13.20;9.00;;;24.90;99.90;;;;;;5101060;27;20479;-60
2023/10/01 11:22:06;;;;;;;14.80;9.73;;;24.90;99.90;;;;;;5097279;28;20468;-59
2023/10/01 11:24:37;;;;;;;12.90;7.90;;;25.00;99.90;;;;;;5095887;28;20491;-59
2023/10/01 11:27:19;;;;;;;11.80;9.17;;;25.20;99.90;;;;;;5096354;28;20972;-59
2023/10/01 11:30:13;;;;;;;11.70;8.83;;;25.30;99.90;;;;;;5095503;28;20456;-60
2023/10/01 11:33:01;;;;;;;11.73;8.90;;;25.40;99.90;;;;;;5096200;28;20472;-59
2023/10/01 11:35:33;;;;;;;11.10;8.87;;;25.70;99.90;;;;;;5094347;28;20455;-60
2023/10/01 11:38:09;;;;;;;12.90;10.00;;;26.00;99.90;;;;;;5094996;28;20931;-58
2023/10/01 11:43:32;;;;;;;12.20;8.70;;;26.00;99.90;;;;;;5095575;28;20432;-60
2023/10/01 11:46:20;;;;;;;12.90;8.97;;;26.00;99.90;;;;;;5098539;28;20491;-58
2023/10/01 11:48:59;;;;;;;15.23;10.67;;;26.00;99.90;;;;;;5108374;28;20451;-57
2023/10/01 11:51:42;;;;;;;11.27;8.63;;;25.80;99.90;;;;;;5116011;28;20459;-56
2023/10/01 11:54:11;;;;;;;11.57;9.43;;;25.80;99.90;;;;;;5116177;28;20451;-57
2023/10/01 11:56:42;;;;;;;12.10;8.80;;;25.90;99.90;;;;;;5117090;28;20448;-57
2023/10/01 11:59:17;;;;;;;12.07;9.00;;;25.80;99.90;;;;;;5115755;28;20640;-58
2023/10/01 12:01:48;;;;;;;14.00;9.77;;;25.80;99.90;;;;;;5109898;28;20506;-58
2023/10/01 12:04:21;;;;;;;11.47;8.77;;;25.70;99.90;;;;;;5115437;28;20475;-57
2023/10/01 12:06:56;;;;;;;12.03;8.63;;;25.80;99.90;;;;;;5111119;28;20529;-57
2023/10/01 12:09:24;;;;;;;12.00;9.07;;;26.00;99.90;;;;;;5115575;28;20906;-57
2023/10/01 12:12:04;;;;;;;11.27;9.00;;;26.10;99.90;;;;;;5115774;28;20462;-56
2023/10/01 12:14:52;;;;;;;13.33;8.87;;;26.40;99.90;;;;;;5115725;28;20562;-57
2023/10/01 12:17:23;;;;;;;12.77;9.20;;;26.40;99.90;;;;;;5118153;28;20550;-58
2023/10/01 12:19:52;;;;;;;14.23;9.03;;;26.60;99.90;;;;;;5116891;28;20792;-57
2023/10/01 12:22:23;;;;;;;12.30;9.13;;;26.70;99.90;;;;;;5115762;28;20469;-57
2023/10/01 12:24:56;;;;;;;12.87;9.13;;;26.50;99.90;;;;;;5118001;28;20541;-58
2023/10/01 12:27:41;;;;;;;13.07;10.17;;;26.60;99.90;;;;;;5118556;28;20467;-57
2023/10/01 12:30:11;;;;;;;13.10;9.57;;;26.70;99.90;;;;;;5118412;27;20468;-57
2023/10/01 12:32:47;;;;;;;13.07;10.30;;;26.90;99.90;;;;;;5119657;27;20456;-57
2023/10/01 12:35:27;;;;;;;16.93;9.93;;;26.80;99.90;;;;;;5119939;28;20443;-57
2023/10/01 12:38:05;;;;;;;16.13;10.50;;;26.80;99.90;;;;;;5119272;28;20454;-57
2023/10/01 12:40:35;;;;;;;15.03;11.10;;;26.30;99.90;;;;;;5118425;27;20450;-56
2023/10/01 12:43:32;;;;;;;13.17;9.87;;;26.30;99.90;;;;;;5120983;28;20743;-57
2023/10/01 12:45:54;;;;;;;15.07;10.47;;;26.30;99.90;;;;;;5116253;27;20576;-57
2023/10/01 12:48:21;;;;;;;12.30;9.50;;;26.40;99.90;;;;;;5120448;28;20463;-58
2023/10/01 12:50:59;;;;;;;15.00;9.83;;;26.30;99.90;;;;;;5099782;28;20470;-59
2023/10/01 12:53:27;;;;;;;15.30;10.67;;;26.50;99.90;;;;;;5101007;28;20484;-59
2023/10/01 12:55:56;;;;;;;12.43;9.57;;;26.50;99.90;;;;;;5099168;28;20808;-60
2023/10/01 12:58:35;;;;;;;14.40;9.63;;;26.80;99.90;;;;;;5100431;28;20750;-60
2023/10/01 13:01:04;;;;;;;16.40;11.53;;;26.80;99.90;;;;;;5100847;28;20459;-60
2023/10/01 13:03:31;;;;;;;15.73;10.83;;;26.50;99.90;;;;;;5099715;28;20541;-59
2023/10/01 13:06:05;;;;;;;12.23;9.90;;;26.50;99.90;;;;;;5099737;28;20488;-59
2023/10/01 13:08:34;;;;;;;14.53;10.57;;;26.40;99.90;;;;;;5100070;28;20464;-59
2023/10/01 13:11:02;;;;;;;16.63;10.03;;;26.60;99.90;;;;;;5100872;27;20468;-59
2023/10/01 13:13:35;;;;;;;14.10;10.80;;;27.00;99.90;;;;;;5141182;27;20454;-58
2023/10/01 13:16:03;;;;;;;15.20;11.10;;;26.60;99.90;;;;;;5133716;27;20517;-57
2023/10/01 13:18:31;;;;;;;12.60;10.60;;;26.60;99.90;;;;;;5099751;28;20525;-59
2023/10/01 13:21:09;;;;;;;16.57;11.20;;;26.50;99.90;;;;;;5099569;28;20903;-59
2023/10/01 13:23:43;;;;;;;14.73;11.90;;;26.50;99.90;;;;;;5102042;28;20553;-59
2023/10/01 13:26:24;;;;;;;15.37;11.83;;;26.70;99.90;;;;;;5099373;28;20495;-60
2023/10/01 13:28:56;;;;;;;13.97;10.63;;;27.00;99.90;;;;;;5125765;27;20586;-59
2023/10/01 13:31:40;;;;;;;13.10;10.60;;;26.80;99.90;;;;;;5139563;27;20974;-60
2023/10/01 13:34:09;;;;;;;13.77;11.20;;;27.00;99.90;;;;;;5135023;27;20477;-59